Terminal Aerodrome Forecast
Issued by NWS Brownsville, TX

Home | Current Version | Previous Version | Text Only | Print | Product List | Glossary On
Versions: 1 2 3 4 5 6 7 8 9 10 11 12 13 14
000
FTUS44 KBRO 271755
TAFHRL
TAF
KHRL 271755Z 2718/2818 17015G22KT P6SM BKN040
     FM272200 18015G22KT P6SM SCT040
     FM280100 15011KT P6SM FEW025 SCT250
     FM280500 16012KT P6SM BKN015
     FM281500 16020G28KT P6SM BKN025=

USA.gov is the U.S. government's official web portal to all federal, state and local government web resources and services.